sensor_id;sensor_type;location;lat;lon;timestamp;P1;durP1;ratioP1;P2;durP2;ratioP2
4047;SDS011;2038;51.728;6.674;2023-03-14T00:00:10;7.10;;;3.13;;
4047;SDS011;2038;51.728;6.674;2023-03-14T00:02:39;7.57;;;3.63;;
4047;SDS011;2038;51.728;6.674;2023-03-14T00:05:06;5.10;;;3.10;;
4047;SDS011;2038;51.728;6.674;2023-03-14T00:07:34;6.87;;;3.30;;
4047;SDS011;2038;51.728;6.674;2023-03-14T00:10:06;5.90;;;2.83;;
4047;SDS011;2038;51.728;6.674;2023-03-14T00:12:38;5.23;;;2.97;;
4047;SDS011;2038;51.728;6.674;2023-03-14T00:15:05;6.13;;;3.00;;
4047;SDS011;2038;51.728;6.674;2023-03-14T00:17:33;8.10;;;3.60;;
4047;SDS011;2038;51.728;6.674;2023-03-14T00:20:01;7.23;;;3.03;;
4047;SDS011;2038;51.728;6.674;2023-03-14T00:22:33;11.27;;;3.00;;
4047;SDS011;2038;51.728;6.674;2023-03-14T00:25:01;9.20;;;3.27;;
4047;SDS011;2038;51.728;6.674;2023-03-14T00:27:28;8.10;;;2.63;;
4047;SDS011;2038;51.728;6.674;2023-03-14T00:29:54;7.37;;;3.00;;
4047;SDS011;2038;51.728;6.674;2023-03-14T00:32:20;8.23;;;3.30;;
4047;SDS011;2038;51.728;6.674;2023-03-14T00:34:47;10.10;;;3.80;;
4047;SDS011;2038;51.728;6.674;2023-03-14T00:37:13;5.57;;;3.10;;
4047;SDS011;2038;51.728;6.674;2023-03-14T00:39:40;9.23;;;3.37;;
4047;SDS011;2038;51.728;6.674;2023-03-14T00:42:06;16.07;;;3.47;;
4047;SDS011;2038;51.728;6.674;2023-03-14T00:44:33;11.23;;;2.70;;
4047;SDS011;2038;51.728;6.674;2023-03-14T00:46:59;4.73;;;3.50;;
4047;SDS011;2038;51.728;6.674;2023-03-14T00:49:25;4.53;;;2.97;;
4047;SDS011;2038;51.728;6.674;2023-03-14T00:51:52;9.17;;;3.97;;
4047;SDS011;2038;51.728;6.674;2023-03-14T00:54:18;6.23;;;2.70;;
4047;SDS011;2038;51.728;6.674;2023-03-14T00:56:45;13.40;;;3.63;;
4047;SDS011;2038;51.728;6.674;2023-03-14T00:59:12;4.30;;;2.87;;
4047;SDS011;2038;51.728;6.674;2023-03-14T01:01:40;7.53;;;2.23;;
4047;SDS011;2038;51.728;6.674;2023-03-14T01:04:07;9.93;;;3.47;;
4047;SDS011;2038;51.728;6.674;2023-03-14T01:06:33;5.57;;;3.53;;
4047;SDS011;2038;51.728;6.674;2023-03-14T01:08:59;13.17;;;3.53;;
4047;SDS011;2038;51.728;6.674;2023-03-14T01:11:27;10.67;;;4.03;;
4047;SDS011;2038;51.728;6.674;2023-03-14T01:13:59;6.57;;;4.77;;
4047;SDS011;2038;51.728;6.674;2023-03-14T01:16:27;5.57;;;2.63;;
4047;SDS011;2038;51.728;6.674;2023-03-14T01:18:57;4.80;;;2.80;;
4047;SDS011;2038;51.728;6.674;2023-03-14T01:21:24;15.37;;;2.83;;
4047;SDS011;2038;51.728;6.674;2023-03-14T01:23:55;7.00;;;2.93;;
4047;SDS011;2038;51.728;6.674;2023-03-14T01:26:25;9.67;;;3.40;;
4047;SDS011;2038;51.728;6.674;2023-03-14T01:28:55;5.87;;;2.73;;
4047;SDS011;2038;51.728;6.674;2023-03-14T01:31:22;14.27;;;4.50;;
4047;SDS011;2038;51.728;6.674;2023-03-14T01:33:49;7.13;;;3.00;;
4047;SDS011;2038;51.728;6.674;2023-03-14T01:36:16;10.67;;;2.93;;
4047;SDS011;2038;51.728;6.674;2023-03-14T01:38:42;7.20;;;3.57;;
4047;SDS011;2038;51.728;6.674;2023-03-14T01:41:11;3.13;;;2.57;;
4047;SDS011;2038;51.728;6.674;2023-03-14T01:43:42;6.07;;;2.50;;
4047;SDS011;2038;51.728;6.674;2023-03-14T01:49:04;4.63;;;2.97;;
4047;SDS011;2038;51.728;6.674;2023-03-14T01:51:54;6.13;;;2.60;;
4047;SDS011;2038;51.728;6.674;2023-03-14T01:54:42;6.47;;;3.07;;
4047;SDS011;2038;51.728;6.674;2023-03-14T01:57:23;9.43;;;2.60;;
4047;SDS011;2038;51.728;6.674;2023-03-14T02:00:00;7.43;;;2.20;;
4047;SDS011;2038;51.728;6.674;2023-03-14T02:02:46;4.60;;;3.13;;
4047;SDS011;2038;51.728;6.674;2023-03-14T02:05:20;6.23;;;2.50;;
4047;SDS011;2038;51.728;6.674;2023-03-14T02:07:51;3.73;;;1.80;;
4047;SDS011;2038;51.728;6.674;2023-03-14T02:10:21;8.73;;;2.80;;
4047;SDS011;2038;51.728;6.674;2023-03-14T02:12:57;5.47;;;3.03;;
4047;SDS011;2038;51.728;6.674;2023-03-14T02:15:28;10.40;;;2.60;;
4047;SDS011;2038;51.728;6.674;2023-03-14T02:17:55;9.23;;;3.03;;
4047;SDS011;2038;51.728;6.674;2023-03-14T02:23:00;6.47;;;2.53;;
4047;SDS011;2038;51.728;6.674;2023-03-14T02:25:33;2.83;;;1.70;;
4047;SDS011;2038;51.728;6.674;2023-03-14T02:28:16;7.20;;;3.33;;
4047;SDS011;2038;51.728;6.674;2023-03-14T02:30:42;12.33;;;3.57;;
4047;SDS011;2038;51.728;6.674;2023-03-14T02:33:10;9.83;;;3.70;;
4047;SDS011;2038;51.728;6.674;2023-03-14T02:41:04;9.67;;;2.20;;
4047;SDS011;2038;51.728;6.674;2023-03-14T02:43:31;5.50;;;2.40;;
4047;SDS011;2038;51.728;6.674;2023-03-14T02:45:58;5.93;;;2.50;;
4047;SDS011;2038;51.728;6.674;2023-03-14T02:48:27;8.50;;;2.90;;
4047;SDS011;2038;51.728;6.674;2023-03-14T02:51:06;8.67;;;2.57;;
4047;SDS011;2038;51.728;6.674;2023-03-14T02:53:35;4.73;;;2.10;;
4047;SDS011;2038;51.728;6.674;2023-03-14T02:56:03;5.10;;;2.70;;
4047;SDS011;2038;51.728;6.674;2023-03-14T02:58:30;3.40;;;1.77;;
4047;SDS011;2038;51.728;6.674;2023-03-14T03:00:56;9.33;;;2.67;;
4047;SDS011;2038;51.728;6.674;2023-03-14T03:03:22;8.37;;;2.67;;
4047;SDS011;2038;51.728;6.674;2023-03-14T03:05:49;5.90;;;2.00;;
4047;SDS011;2038;51.728;6.674;2023-03-14T03:08:21;4.30;;;1.93;;
4047;SDS011;2038;51.728;6.674;2023-03-14T03:10:51;5.20;;;2.03;;
4047;SDS011;2038;51.728;6.674;2023-03-14T03:13:18;8.13;;;2.13;;
4047;SDS011;2038;51.728;6.674;2023-03-14T03:15:45;4.83;;;2.13;;
4047;SDS011;2038;51.728;6.674;2023-03-14T03:18:11;3.13;;;2.00;;
4047;SDS011;2038;51.728;6.674;2023-03-14T03:20:38;11.97;;;2.57;;
4047;SDS011;2038;51.728;6.674;2023-03-14T03:23:04;8.80;;;2.00;;
4047;SDS011;2038;51.728;6.674;2023-03-14T03:25:31;6.87;;;2.50;;
4047;SDS011;2038;51.728;6.674;2023-03-14T03:27:57;12.70;;;2.80;;
4047;SDS011;2038;51.728;6.674;2023-03-14T03:30:26;8.47;;;2.27;;
4047;SDS011;2038;51.728;6.674;2023-03-14T03:32:52;15.20;;;2.90;;
4047;SDS011;2038;51.728;6.674;2023-03-14T03:35:18;5.27;;;2.70;;
4047;SDS011;2038;51.728;6.674;2023-03-14T03:37:45;8.07;;;2.23;;
4047;SDS011;2038;51.728;6.674;2023-03-14T03:40:11;20.40;;;3.13;;
4047;SDS011;2038;51.728;6.674;2023-03-14T03:42:37;16.13;;;2.57;;
4047;SDS011;2038;51.728;6.674;2023-03-14T03:45:03;13.87;;;3.23;;
4047;SDS011;2038;51.728;6.674;2023-03-14T03:47:30;11.13;;;2.53;;
4047;SDS011;2038;51.728;6.674;2023-03-14T03:49:57;7.87;;;3.07;;
4047;SDS011;2038;51.728;6.674;2023-03-14T03:52:23;7.97;;;2.50;;
4047;SDS011;2038;51.728;6.674;2023-03-14T03:54:49;10.43;;;2.70;;
4047;SDS011;2038;51.728;6.674;2023-03-14T03:57:15;12.33;;;3.20;;
4047;SDS011;2038;51.728;6.674;2023-03-14T03:59:42;8.17;;;3.70;;
4047;SDS011;2038;51.728;6.674;2023-03-14T04:02:08;16.40;;;2.73;;
4047;SDS011;2038;51.728;6.674;2023-03-14T04:04:34;8.73;;;2.67;;
4047;SDS011;2038;51.728;6.674;2023-03-14T04:07:00;10.37;;;3.23;;
4047;SDS011;2038;51.728;6.674;2023-03-14T04:09:27;10.03;;;2.70;;
4047;SDS011;2038;51.728;6.674;2023-03-14T04:11:53;11.13;;;2.63;;
4047;SDS011;2038;51.728;6.674;2023-03-14T04:14:19;13.10;;;3.23;;
4047;SDS011;2038;51.728;6.674;2023-03-14T04:16:45;9.13;;;2.20;;
4047;SDS011;2038;51.728;6.674;2023-03-14T04:19:12;9.70;;;2.10;;
4047;SDS011;2038;51.728;6.674;2023-03-14T04:21:38;9.53;;;2.83;;
4047;SDS011;2038;51.728;6.674;2023-03-14T04:24:11;11.83;;;2.13;;
4047;SDS011;2038;51.728;6.674;2023-03-14T04:26:38;7.90;;;2.13;;
4047;SDS011;2038;51.728;6.674;2023-03-14T04:29:04;6.60;;;2.33;;
4047;SDS011;2038;51.728;6.674;2023-03-14T04:31:30;6.50;;;2.30;;
4047;SDS011;2038;51.728;6.674;2023-03-14T04:33:57;11.93;;;2.67;;
4047;SDS011;2038;51.728;6.674;2023-03-14T04:36:23;11.00;;;2.90;;
4047;SDS011;2038;51.728;6.674;2023-03-14T04:38:49;8.63;;;3.20;;
4047;SDS011;2038;51.728;6.674;2023-03-14T04:41:15;14.03;;;3.50;;
4047;SDS011;2038;51.728;6.674;2023-03-14T04:43:41;6.17;;;2.20;;
4047;SDS011;2038;51.728;6.674;2023-03-14T04:46:08;7.23;;;2.63;;
4047;SDS011;2038;51.728;6.674;2023-03-14T04:48:34;7.47;;;2.60;;
4047;SDS011;2038;51.728;6.674;2023-03-14T04:51:02;13.27;;;3.23;;
4047;SDS011;2038;51.728;6.674;2023-03-14T04:53:29;16.70;;;2.73;;
4047;SDS011;2038;51.728;6.674;2023-03-14T04:55:55;11.00;;;3.07;;
4047;SDS011;2038;51.728;6.674;2023-03-14T04:58:22;6.17;;;1.97;;
4047;SDS011;2038;51.728;6.674;2023-03-14T05:00:49;5.67;;;2.30;;
4047;SDS011;2038;51.728;6.674;2023-03-14T05:03:16;7.70;;;2.33;;
4047;SDS011;2038;51.728;6.674;2023-03-14T05:05:43;8.37;;;2.20;;
4047;SDS011;2038;51.728;6.674;2023-03-14T05:08:10;4.30;;;2.80;;
4047;SDS011;2038;51.728;6.674;2023-03-14T05:10:36;10.83;;;2.30;;
4047;SDS011;2038;51.728;6.674;2023-03-14T05:13:03;7.20;;;2.90;;
4047;SDS011;2038;51.728;6.674;2023-03-14T05:15:29;11.20;;;3.53;;
4047;SDS011;2038;51.728;6.674;2023-03-14T05:17:55;7.53;;;2.53;;
4047;SDS011;2038;51.728;6.674;2023-03-14T05:20:22;9.40;;;2.57;;
4047;SDS011;2038;51.728;6.674;2023-03-14T05:22:48;9.00;;;2.60;;
4047;SDS011;2038;51.728;6.674;2023-03-14T05:25:14;3.03;;;1.40;;
4047;SDS011;2038;51.728;6.674;2023-03-14T05:27:40;8.00;;;2.10;;
4047;SDS011;2038;51.728;6.674;2023-03-14T05:30:07;7.60;;;1.97;;
4047;SDS011;2038;51.728;6.674;2023-03-14T05:32:34;4.73;;;2.03;;
4047;SDS011;2038;51.728;6.674;2023-03-14T05:35:00;3.03;;;1.57;;
4047;SDS011;2038;51.728;6.674;2023-03-14T05:37:27;2.20;;;1.43;;
4047;SDS011;2038;51.728;6.674;2023-03-14T05:39:53;2.93;;;1.60;;
4047;SDS011;2038;51.728;6.674;2023-03-14T05:42:20;4.70;;;1.60;;
4047;SDS011;2038;51.728;6.674;2023-03-14T05:44:46;3.73;;;2.23;;
4047;SDS011;2038;51.728;6.674;2023-03-14T05:47:12;2.63;;;1.50;;
4047;SDS011;2038;51.728;6.674;2023-03-14T05:49:38;5.20;;;1.60;;
4047;SDS011;2038;51.728;6.674;2023-03-14T05:52:04;2.53;;;1.53;;
4047;SDS011;2038;51.728;6.674;2023-03-14T05:54:31;1.90;;;1.70;;
4047;SDS011;2038;51.728;6.674;2023-03-14T05:56:57;4.60;;;1.80;;
4047;SDS011;2038;51.728;6.674;2023-03-14T05:59:23;4.67;;;1.50;;
4047;SDS011;2038;51.728;6.674;2023-03-14T06:01:49;3.53;;;2.37;;
4047;SDS011;2038;51.728;6.674;2023-03-14T06:04:16;3.90;;;1.53;;
4047;SDS011;2038;51.728;6.674;2023-03-14T06:06:42;2.80;;;1.60;;
4047;SDS011;2038;51.728;6.674;2023-03-14T06:09:08;6.77;;;2.30;;
4047;SDS011;2038;51.728;6.674;2023-03-14T06:11:34;2.13;;;1.90;;
4047;SDS011;2038;51.728;6.674;2023-03-14T06:14:00;2.03;;;1.93;;
4047;SDS011;2038;51.728;6.674;2023-03-14T06:16:27;3.33;;;2.20;;
4047;SDS011;2038;51.728;6.674;2023-03-14T06:18:53;2.57;;;2.37;;
4047;SDS011;2038;51.728;6.674;2023-03-14T06:21:19;3.50;;;2.50;;
4047;SDS011;2038;51.728;6.674;2023-03-14T06:23:46;4.23;;;2.50;;
4047;SDS011;2038;51.728;6.674;2023-03-14T06:26:12;2.67;;;2.20;;
4047;SDS011;2038;51.728;6.674;2023-03-14T06:28:38;4.80;;;2.57;;
4047;SDS011;2038;51.728;6.674;2023-03-14T06:31:05;6.83;;;3.47;;
4047;SDS011;2038;51.728;6.674;2023-03-14T06:33:31;6.80;;;3.37;;
4047;SDS011;2038;51.728;6.674;2023-03-14T06:35:57;4.60;;;3.60;;
4047;SDS011;2038;51.728;6.674;2023-03-14T06:38:23;5.70;;;3.50;;
4047;SDS011;2038;51.728;6.674;2023-03-14T06:40:50;6.87;;;3.97;;
4047;SDS011;2038;51.728;6.674;2023-03-14T06:43:16;3.60;;;3.17;;
4047;SDS011;2038;51.728;6.674;2023-03-14T06:45:42;5.80;;;3.63;;
4047;SDS011;2038;51.728;6.674;2023-03-14T06:48:08;4.40;;;3.70;;
4047;SDS011;2038;51.728;6.674;2023-03-14T06:50:35;4.33;;;3.80;;
4047;SDS011;2038;51.728;6.674;2023-03-14T06:53:01;9.20;;;4.00;;
4047;SDS011;2038;51.728;6.674;2023-03-14T06:55:27;6.17;;;4.27;;
4047;SDS011;2038;51.728;6.674;2023-03-14T06:57:54;5.37;;;3.90;;
4047;SDS011;2038;51.728;6.674;2023-03-14T07:00:20;3.67;;;3.37;;
4047;SDS011;2038;51.728;6.674;2023-03-14T07:02:46;4.23;;;3.30;;
4047;SDS011;2038;51.728;6.674;2023-03-14T07:05:13;4.37;;;3.17;;
4047;SDS011;2038;51.728;6.674;2023-03-14T07:07:39;5.90;;;4.20;;
4047;SDS011;2038;51.728;6.674;2023-03-14T07:10:05;6.50;;;4.30;;
4047;SDS011;2038;51.728;6.674;2023-03-14T07:12:33;5.07;;;4.57;;
4047;SDS011;2038;51.728;6.674;2023-03-14T07:14:59;10.20;;;4.67;;
4047;SDS011;2038;51.728;6.674;2023-03-14T07:17:26;3.83;;;3.43;;
4047;SDS011;2038;51.728;6.674;2023-03-14T07:19:52;6.67;;;4.50;;
4047;SDS011;2038;51.728;6.674;2023-03-14T07:22:18;5.40;;;4.00;;
4047;SDS011;2038;51.728;6.674;2023-03-14T07:24:44;4.50;;;3.53;;
4047;SDS011;2038;51.728;6.674;2023-03-14T07:27:10;6.00;;;3.90;;
4047;SDS011;2038;51.728;6.674;2023-03-14T07:29:37;4.73;;;3.53;;
4047;SDS011;2038;51.728;6.674;2023-03-14T07:32:03;3.70;;;3.40;;
4047;SDS011;2038;51.728;6.674;2023-03-14T07:34:29;4.87;;;3.73;;
4047;SDS011;2038;51.728;6.674;2023-03-14T07:36:55;4.80;;;3.73;;
4047;SDS011;2038;51.728;6.674;2023-03-14T07:39:21;3.33;;;2.90;;
4047;SDS011;2038;51.728;6.674;2023-03-14T07:41:48;5.10;;;2.90;;
4047;SDS011;2038;51.728;6.674;2023-03-14T07:44:14;4.50;;;2.83;;
4047;SDS011;2038;51.728;6.674;2023-03-14T07:46:40;3.70;;;3.10;;
4047;SDS011;2038;51.728;6.674;2023-03-14T07:49:07;4.43;;;3.17;;
4047;SDS011;2038;51.728;6.674;2023-03-14T07:51:33;3.57;;;3.27;;
4047;SDS011;2038;51.728;6.674;2023-03-14T07:53:59;3.20;;;2.90;;
4047;SDS011;2038;51.728;6.674;2023-03-14T07:56:25;6.40;;;3.10;;
4047;SDS011;2038;51.728;6.674;2023-03-14T07:58:52;4.33;;;3.10;;
4047;SDS011;2038;51.728;6.674;2023-03-14T08:01:18;4.47;;;2.80;;
4047;SDS011;2038;51.728;6.674;2023-03-14T08:03:44;3.40;;;2.63;;
4047;SDS011;2038;51.728;6.674;2023-03-14T08:06:10;3.40;;;3.03;;
4047;SDS011;2038;51.728;6.674;2023-03-14T08:08:36;3.83;;;3.40;;
4047;SDS011;2038;51.728;6.674;2023-03-14T08:11:04;3.40;;;3.10;;
4047;SDS011;2038;51.728;6.674;2023-03-14T08:13:36;6.23;;;3.60;;
4047;SDS011;2038;51.728;6.674;2023-03-14T08:16:02;4.20;;;3.77;;
4047;SDS011;2038;51.728;6.674;2023-03-14T08:18:32;7.20;;;3.10;;
4047;SDS011;2038;51.728;6.674;2023-03-14T08:21:00;4.30;;;3.50;;
4047;SDS011;2038;51.728;6.674;2023-03-14T08:23:26;4.10;;;3.50;;
4047;SDS011;2038;51.728;6.674;2023-03-14T08:25:52;12.07;;;3.67;;
4047;SDS011;2038;51.728;6.674;2023-03-14T08:28:18;5.80;;;3.43;;
4047;SDS011;2038;51.728;6.674;2023-03-14T08:30:44;4.63;;;3.90;;
4047;SDS011;2038;51.728;6.674;2023-03-14T08:33:11;5.57;;;3.63;;
4047;SDS011;2038;51.728;6.674;2023-03-14T08:35:37;8.47;;;3.77;;
4047;SDS011;2038;51.728;6.674;2023-03-14T08:38:04;3.73;;;3.30;;
4047;SDS011;2038;51.728;6.674;2023-03-14T08:40:30;4.27;;;3.50;;
4047;SDS011;2038;51.728;6.674;2023-03-14T08:42:56;4.00;;;3.60;;
4047;SDS011;2038;51.728;6.674;2023-03-14T08:45:23;4.20;;;3.70;;
4047;SDS011;2038;51.728;6.674;2023-03-14T08:47:50;4.30;;;1.50;;
4047;SDS011;2038;51.728;6.674;2023-03-14T08:50:16;4.17;;;1.50;;
4047;SDS011;2038;51.728;6.674;2023-03-14T08:52:43;2.13;;;1.93;;
4047;SDS011;2038;51.728;6.674;2023-03-14T08:55:09;6.13;;;1.20;;
4047;SDS011;2038;51.728;6.674;2023-03-14T08:57:35;4.50;;;1.03;;
4047;SDS011;2038;51.728;6.674;2023-03-14T09:00:02;1.37;;;1.20;;
4047;SDS011;2038;51.728;6.674;2023-03-14T09:02:34;1.50;;;1.40;;
4047;SDS011;2038;51.728;6.674;2023-03-14T09:05:01;1.37;;;1.27;;
4047;SDS011;2038;51.728;6.674;2023-03-14T09:07:27;2.13;;;1.60;;
4047;SDS011;2038;51.728;6.674;2023-03-14T09:09:53;1.87;;;1.73;;
4047;SDS011;2038;51.728;6.674;2023-03-14T09:12:20;2.53;;;2.33;;
4047;SDS011;2038;51.728;6.674;2023-03-14T09:14:46;6.80;;;1.60;;
4047;SDS011;2038;51.728;6.674;2023-03-14T09:17:12;4.63;;;1.77;;
4047;SDS011;2038;51.728;6.674;2023-03-14T09:19:38;1.87;;;1.70;;
4047;SDS011;2038;51.728;6.674;2023-03-14T09:22:04;1.87;;;1.77;;
4047;SDS011;2038;51.728;6.674;2023-03-14T09:24:31;2.00;;;1.90;;
4047;SDS011;2038;51.728;6.674;2023-03-14T09:26:57;5.60;;;1.90;;
4047;SDS011;2038;51.728;6.674;2023-03-14T09:29:23;2.07;;;1.97;;
4047;SDS011;2038;51.728;6.674;2023-03-14T09:31:50;2.13;;;1.47;;
4047;SDS011;2038;51.728;6.674;2023-03-14T09:34:16;2.20;;;2.00;;
4047;SDS011;2038;51.728;6.674;2023-03-14T09:36:43;2.13;;;1.73;;
4047;SDS011;2038;51.728;6.674;2023-03-14T09:39:10;1.50;;;1.40;;
4047;SDS011;2038;51.728;6.674;2023-03-14T09:41:43;4.50;;;1.63;;
4047;SDS011;2038;51.728;6.674;2023-03-14T09:44:21;1.43;;;1.33;;
4047;SDS011;2038;51.728;6.674;2023-03-14T09:46:57;1.50;;;1.40;;
4047;SDS011;2038;51.728;6.674;2023-03-14T09:49:36;1.87;;;1.77;;
4047;SDS011;2038;51.728;6.674;2023-03-14T09:54:57;1.93;;;1.83;;
4047;SDS011;2038;51.728;6.674;2023-03-14T09:57:38;2.00;;;1.90;;
4047;SDS011;2038;51.728;6.674;2023-03-14T10:00:17;3.00;;;2.30;;
4047;SDS011;2038;51.728;6.674;2023-03-14T10:02:53;7.00;;;2.43;;
4047;SDS011;2038;51.728;6.674;2023-03-14T10:05:24;6.40;;;3.20;;
4047;SDS011;2038;51.728;6.674;2023-03-14T10:07:52;3.67;;;2.23;;
4047;SDS011;2038;51.728;6.674;2023-03-14T10:10:20;7.90;;;2.10;;
4047;SDS011;2038;51.728;6.674;2023-03-14T10:12:57;2.30;;;2.10;;
4047;SDS011;2038;51.728;6.674;2023-03-14T10:15:40;1.73;;;1.53;;
4047;SDS011;2038;51.728;6.674;2023-03-14T10:18:10;8.90;;;2.10;;
4047;SDS011;2038;51.728;6.674;2023-03-14T10:20:39;7.53;;;2.47;;
4047;SDS011;2038;51.728;6.674;2023-03-14T10:25:42;4.03;;;2.20;;
4047;SDS011;2038;51.728;6.674;2023-03-14T10:28:26;2.27;;;2.17;;
4047;SDS011;2038;51.728;6.674;2023-03-14T10:30:58;4.13;;;1.83;;
4047;SDS011;2038;51.728;6.674;2023-03-14T10:33:26;2.50;;;2.10;;
4047;SDS011;2038;51.728;6.674;2023-03-14T10:38:48;6.87;;;2.10;;
4047;SDS011;2038;51.728;6.674;2023-03-14T10:41:25;3.23;;;2.30;;
4047;SDS011;2038;51.728;6.674;2023-03-14T10:43:56;6.43;;;1.73;;
4047;SDS011;2038;51.728;6.674;2023-03-14T10:46:29;2.33;;;1.50;;
4047;SDS011;2038;51.728;6.674;2023-03-14T10:48:58;2.77;;;2.20;;
4047;SDS011;2038;51.728;6.674;2023-03-14T10:51:30;1.87;;;1.77;;
4047;SDS011;2038;51.728;6.674;2023-03-14T10:53:57;2.30;;;1.43;;
4047;SDS011;2038;51.728;6.674;2023-03-14T10:56:37;3.60;;;1.80;;
4047;SDS011;2038;51.728;6.674;2023-03-14T10:59:04;3.27;;;1.53;;
4047;SDS011;2038;51.728;6.674;2023-03-14T11:01:41;4.53;;;1.30;;
4047;SDS011;2038;51.728;6.674;2023-03-14T11:07:45;1.73;;;1.63;;
4047;SDS011;2038;51.728;6.674;2023-03-14T11:10:18;4.17;;;2.80;;
4047;SDS011;2038;51.728;6.674;2023-03-14T11:15:49;2.27;;;1.53;;
4047;SDS011;2038;51.728;6.674;2023-03-14T11:26:41;7.80;;;3.07;;
4047;SDS011;2038;51.728;6.674;2023-03-14T11:29:26;5.20;;;1.77;;
4047;SDS011;2038;51.728;6.674;2023-03-14T11:32:19;3.87;;;1.63;;
4047;SDS011;2038;51.728;6.674;2023-03-14T11:35:14;2.90;;;2.10;;
4047;SDS011;2038;51.728;6.674;2023-03-14T11:37:56;8.40;;;4.33;;
4047;SDS011;2038;51.728;6.674;2023-03-14T11:40:54;4.10;;;2.17;;
4047;SDS011;2038;51.728;6.674;2023-03-14T11:46:10;20.57;;;2.17;;
4047;SDS011;2038;51.728;6.674;2023-03-14T11:48:55;11.47;;;2.50;;
4047;SDS011;2038;51.728;6.674;2023-03-14T11:52:05;7.50;;;1.77;;
4047;SDS011;2038;51.728;6.674;2023-03-14T11:55:04;6.43;;;2.27;;
4047;SDS011;2038;51.728;6.674;2023-03-14T11:57:44;17.33;;;3.57;;
4047;SDS011;2038;51.728;6.674;2023-03-14T12:00:19;4.83;;;2.20;;
4047;SDS011;2038;51.728;6.674;2023-03-14T12:06:17;10.97;;;2.70;;
4047;SDS011;2038;51.728;6.674;2023-03-14T12:09:03;5.47;;;2.13;;
4047;SDS011;2038;51.728;6.674;2023-03-14T12:14:29;11.33;;;3.90;;
4047;SDS011;2038;51.728;6.674;2023-03-14T12:22:49;16.10;;;3.80;;
4047;SDS011;2038;51.728;6.674;2023-03-14T12:25:26;7.87;;;3.27;;
4047;SDS011;2038;51.728;6.674;2023-03-14T12:30:33;12.23;;;3.40;;
4047;SDS011;2038;51.728;6.674;2023-03-14T12:44:28;28.73;;;4.37;;
4047;SDS011;2038;51.728;6.674;2023-03-14T12:46:58;16.90;;;3.90;;
4047;SDS011;2038;51.728;6.674;2023-03-14T12:49:39;17.20;;;3.50;;
4047;SDS011;2038;51.728;6.674;2023-03-14T12:52:16;20.93;;;4.30;;
4047;SDS011;2038;51.728;6.674;2023-03-14T12:55:17;24.70;;;5.77;;
4047;SDS011;2038;51.728;6.674;2023-03-14T13:00:57;15.43;;;5.90;;
4047;SDS011;2038;51.728;6.674;2023-03-14T13:03:39;13.23;;;3.67;;
4047;SDS011;2038;51.728;6.674;2023-03-14T13:06:44;13.20;;;3.70;;
4047;SDS011;2038;51.728;6.674;2023-03-14T13:11:54;29.63;;;5.33;;
4047;SDS011;2038;51.728;6.674;2023-03-14T13:14:27;26.80;;;4.77;;
4047;SDS011;2038;51.728;6.674;2023-03-14T13:17:01;16.00;;;3.90;;
4047;SDS011;2038;51.728;6.674;2023-03-14T13:19:28;11.77;;;3.77;;
4047;SDS011;2038;51.728;6.674;2023-03-14T13:22:03;19.80;;;4.53;;
4047;SDS011;2038;51.728;6.674;2023-03-14T13:24:44;13.20;;;4.17;;
4047;SDS011;2038;51.728;6.674;2023-03-14T13:27:18;11.80;;;3.50;;
4047;SDS011;2038;51.728;6.674;2023-03-14T13:29:48;16.83;;;3.53;;
4047;SDS011;2038;51.728;6.674;2023-03-14T13:34:57;17.70;;;3.80;;
4047;SDS011;2038;51.728;6.674;2023-03-14T13:37:24;15.93;;;3.37;;
4047;SDS011;2038;51.728;6.674;2023-03-14T13:39:52;10.90;;;3.20;;
4047;SDS011;2038;51.728;6.674;2023-03-14T13:42:25;19.13;;;3.10;;
4047;SDS011;2038;51.728;6.674;2023-03-14T13:44:54;10.30;;;2.70;;
4047;SDS011;2038;51.728;6.674;2023-03-14T13:47:25;9.33;;;2.83;;
4047;SDS011;2038;51.728;6.674;2023-03-14T13:49:51;5.80;;;2.27;;
4047;SDS011;2038;51.728;6.674;2023-03-14T13:52:37;8.93;;;2.77;;
4047;SDS011;2038;51.728;6.674;2023-03-14T13:55:04;15.23;;;3.27;;
4047;SDS011;2038;51.728;6.674;2023-03-14T13:57:47;7.57;;;2.60;;
4047;SDS011;2038;51.728;6.674;2023-03-14T14:00:25;9.90;;;3.40;;
4047;SDS011;2038;51.728;6.674;2023-03-14T14:02:56;11.70;;;3.70;;
4047;SDS011;2038;51.728;6.674;2023-03-14T14:05:28;5.50;;;2.80;;
4047;SDS011;2038;51.728;6.674;2023-03-14T14:08:02;11.37;;;3.27;;
4047;SDS011;2038;51.728;6.674;2023-03-14T14:10:31;5.93;;;3.33;;
4047;SDS011;2038;51.728;6.674;2023-03-14T14:13:01;12.47;;;3.80;;
4047;SDS011;2038;51.728;6.674;2023-03-14T14:15:34;7.23;;;2.23;;
4047;SDS011;2038;51.728;6.674;2023-03-14T14:18:09;4.43;;;3.13;;
4047;SDS011;2038;51.728;6.674;2023-03-14T14:20:42;4.83;;;2.53;;
4047;SDS011;2038;51.728;6.674;2023-03-14T14:23:12;10.00;;;2.70;;
4047;SDS011;2038;51.728;6.674;2023-03-14T14:25:51;10.07;;;3.13;;
4047;SDS011;2038;51.728;6.674;2023-03-14T14:28:31;3.27;;;2.13;;
4047;SDS011;2038;51.728;6.674;2023-03-14T14:31:19;17.10;;;3.20;;
4047;SDS011;2038;51.728;6.674;2023-03-14T14:33:58;7.37;;;4.30;;
4047;SDS011;2038;51.728;6.674;2023-03-14T14:36:31;5.33;;;2.50;;
4047;SDS011;2038;51.728;6.674;2023-03-14T14:39:11;4.63;;;1.83;;
4047;SDS011;2038;51.728;6.674;2023-03-14T14:41:45;7.10;;;2.60;;
4047;SDS011;2038;51.728;6.674;2023-03-14T14:44:17;6.37;;;3.37;;
4047;SDS011;2038;51.728;6.674;2023-03-14T14:46:54;7.83;;;2.20;;
4047;SDS011;2038;51.728;6.674;2023-03-14T14:49:27;5.53;;;2.43;;
4047;SDS011;2038;51.728;6.674;2023-03-14T14:52:00;6.40;;;2.53;;
4047;SDS011;2038;51.728;6.674;2023-03-14T14:54:59;6.67;;;2.50;;
4047;SDS011;2038;51.728;6.674;2023-03-14T14:57:33;8.80;;;2.00;;
4047;SDS011;2038;51.728;6.674;2023-03-14T15:00:07;10.30;;;2.63;;
4047;SDS011;2038;51.728;6.674;2023-03-14T15:02:46;7.10;;;3.10;;
4047;SDS011;2038;51.728;6.674;2023-03-14T15:05:17;6.63;;;2.40;;
4047;SDS011;2038;51.728;6.674;2023-03-14T15:07:55;5.77;;;2.20;;
4047;SDS011;2038;51.728;6.674;2023-03-14T15:10:23;7.60;;;2.07;;
4047;SDS011;2038;51.728;6.674;2023-03-14T15:12:50;6.57;;;2.30;;
4047;SDS011;2038;51.728;6.674;2023-03-14T15:15:17;2.80;;;2.03;;
4047;SDS011;2038;51.728;6.674;2023-03-14T15:17:43;5.73;;;2.33;;
4047;SDS011;2038;51.728;6.674;2023-03-14T15:20:11;10.20;;;2.30;;
4047;SDS011;2038;51.728;6.674;2023-03-14T15:22:40;9.73;;;2.60;;
4047;SDS011;2038;51.728;6.674;2023-03-14T15:25:07;5.30;;;2.33;;
4047;SDS011;2038;51.728;6.674;2023-03-14T15:27:34;3.77;;;2.10;;
4047;SDS011;2038;51.728;6.674;2023-03-14T15:30:09;7.27;;;2.43;;
4047;SDS011;2038;51.728;6.674;2023-03-14T15:32:41;10.13;;;2.40;;
4047;SDS011;2038;51.728;6.674;2023-03-14T15:35:07;11.97;;;3.20;;
4047;SDS011;2038;51.728;6.674;2023-03-14T15:37:34;2.90;;;1.90;;
4047;SDS011;2038;51.728;6.674;2023-03-14T15:40:01;8.40;;;2.70;;
4047;SDS011;2038;51.728;6.674;2023-03-14T15:42:36;5.00;;;2.47;;
4047;SDS011;2038;51.728;6.674;2023-03-14T15:45:02;7.00;;;1.97;;
4047;SDS011;2038;51.728;6.674;2023-03-14T15:47:29;3.50;;;2.40;;
4047;SDS011;2038;51.728;6.674;2023-03-14T15:49:57;11.73;;;2.57;;
4047;SDS011;2038;51.728;6.674;2023-03-14T15:52:23;7.87;;;3.20;;
4047;SDS011;2038;51.728;6.674;2023-03-14T15:54:50;7.07;;;2.20;;
4047;SDS011;2038;51.728;6.674;2023-03-14T15:57:16;9.43;;;2.20;;
4047;SDS011;2038;51.728;6.674;2023-03-14T15:59:42;11.30;;;2.10;;
4047;SDS011;2038;51.728;6.674;2023-03-14T16:02:09;12.63;;;2.60;;
4047;SDS011;2038;51.728;6.674;2023-03-14T16:04:35;7.27;;;2.07;;
4047;SDS011;2038;51.728;6.674;2023-03-14T16:07:01;5.53;;;2.40;;
4047;SDS011;2038;51.728;6.674;2023-03-14T16:09:28;3.77;;;1.90;;
4047;SDS011;2038;51.728;6.674;2023-03-14T16:11:54;7.60;;;2.23;;
4047;SDS011;2038;51.728;6.674;2023-03-14T16:14:20;5.90;;;2.70;;
4047;SDS011;2038;51.728;6.674;2023-03-14T16:16:48;6.67;;;2.10;;
4047;SDS011;2038;51.728;6.674;2023-03-14T16:19:16;7.00;;;2.03;;
4047;SDS011;2038;51.728;6.674;2023-03-14T16:21:42;9.03;;;2.63;;
4047;SDS011;2038;51.728;6.674;2023-03-14T16:24:09;4.37;;;2.50;;
4047;SDS011;2038;51.728;6.674;2023-03-14T16:26:35;7.10;;;2.70;;
4047;SDS011;2038;51.728;6.674;2023-03-14T16:29:01;5.10;;;2.90;;
4047;SDS011;2038;51.728;6.674;2023-03-14T16:31:28;4.23;;;2.23;;
4047;SDS011;2038;51.728;6.674;2023-03-14T16:33:54;3.37;;;1.90;;
4047;SDS011;2038;51.728;6.674;2023-03-14T16:36:20;8.93;;;2.87;;
4047;SDS011;2038;51.728;6.674;2023-03-14T16:38:46;5.17;;;2.50;;